Terminal Aerodrome Forecast
Issued by NWS Amarillo, TX

Home | Current Version | Previous Version | Text Only | Print | Product List | Glossary On
Versions: 1 2 3 4 5 6 7 8 9 10 11 12
393
FTUS44 KAMA 201745
TAFDHT
TAF
KDHT 201745Z 2018/2118 20016KT P6SM BKN250
     FM210000 18014KT P6SM BKN250
     FM210400 24010KT P6SM OVC080 PROB30 2104/2109 -TSRA BKN060CB
     FM211300 18010KT P6SM VCSH OVC050=

USA.gov is the U.S. government's official web portal to all federal, state and local government web resources and services.